sensor_id;sensor_type;location;lat;lon;timestamp;P1;durP1;ratioP1;P2;durP2;ratioP2
58015;SDS011;43809;52.110;20.964;2022-08-03T00:01:06;4.63;;;4.22;;
58015;SDS011;43809;52.110;20.964;2022-08-03T00:03:06;4.43;;;4.03;;
58015;SDS011;43809;52.110;20.964;2022-08-03T00:05:07;3.53;;;3.28;;
58015;SDS011;43809;52.110;20.964;2022-08-03T00:07:07;4.10;;;3.45;;
58015;SDS011;43809;52.110;20.964;2022-08-03T00:09:07;3.55;;;3.25;;
58015;SDS011;43809;52.110;20.964;2022-08-03T00:11:07;3.42;;;3.22;;
58015;SDS011;43809;52.110;20.964;2022-08-03T00:13:08;3.25;;;3.05;;
58015;SDS011;43809;52.110;20.964;2022-08-03T00:15:08;3.83;;;3.53;;
58015;SDS011;43809;52.110;20.964;2022-08-03T00:17:09;3.45;;;3.20;;
58015;SDS011;43809;52.110;20.964;2022-08-03T00:19:09;3.72;;;3.42;;
58015;SDS011;43809;52.110;20.964;2022-08-03T00:21:11;3.67;;;3.38;;
58015;SDS011;43809;52.110;20.964;2022-08-03T00:23:11;3.13;;;2.83;;
58015;SDS011;43809;52.110;20.964;2022-08-03T00:25:11;2.93;;;2.73;;
58015;SDS011;43809;52.110;20.964;2022-08-03T00:27:12;3.47;;;3.17;;
58015;SDS011;43809;52.110;20.964;2022-08-03T00:29:12;2.58;;;2.38;;
58015;SDS011;43809;52.110;20.964;2022-08-03T00:31:13;2.80;;;2.60;;
58015;SDS011;43809;52.110;20.964;2022-08-03T00:33:13;2.58;;;2.38;;
58015;SDS011;43809;52.110;20.964;2022-08-03T00:35:13;3.00;;;2.80;;
58015;SDS011;43809;52.110;20.964;2022-08-03T00:37:14;3.90;;;3.60;;
58015;SDS011;43809;52.110;20.964;2022-08-03T00:39:14;4.00;;;3.70;;
58015;SDS011;43809;52.110;20.964;2022-08-03T00:41:15;4.90;;;4.47;;
58015;SDS011;43809;52.110;20.964;2022-08-03T00:43:15;6.15;;;5.65;;
58015;SDS011;43809;52.110;20.964;2022-08-03T00:45:19;7.87;;;7.17;;
58015;SDS011;43809;52.110;20.964;2022-08-03T00:47:20;11.30;;;9.60;;
58015;SDS011;43809;52.110;20.964;2022-08-03T00:49:20;12.43;;;11.23;;
58015;SDS011;43809;52.110;20.964;2022-08-03T00:51:20;11.80;;;10.70;;
58015;SDS011;43809;52.110;20.964;2022-08-03T00:53:21;11.93;;;10.82;;
58015;SDS011;43809;52.110;20.964;2022-08-03T00:55:21;10.75;;;9.65;;
58015;SDS011;43809;52.110;20.964;2022-08-03T00:57:21;10.63;;;9.73;;
58015;SDS011;43809;52.110;20.964;2022-08-03T00:59:21;10.20;;;8.33;;
58015;SDS011;43809;52.110;20.964;2022-08-03T01:01:22;6.93;;;6.23;;
58015;SDS011;43809;52.110;20.964;2022-08-03T01:03:22;6.60;;;6.00;;
58015;SDS011;43809;52.110;20.964;2022-08-03T01:05:22;5.80;;;5.30;;
58015;SDS011;43809;52.110;20.964;2022-08-03T01:10:05;6.93;;;6.32;;
58015;SDS011;43809;52.110;20.964;2022-08-03T01:14:16;11.60;;;10.50;;
58015;SDS011;43809;52.110;20.964;2022-08-03T01:16:22;10.48;;;9.38;;
58015;SDS011;43809;52.110;20.964;2022-08-03T01:20:33;6.55;;;5.97;;
58015;SDS011;43809;52.110;20.964;2022-08-03T01:27:08;5.30;;;4.80;;
58015;SDS011;43809;52.110;20.964;2022-08-03T01:31:31;5.07;;;4.57;;
58015;SDS011;43809;52.110;20.964;2022-08-03T01:33:41;5.05;;;4.65;;
58015;SDS011;43809;52.110;20.964;2022-08-03T01:35:44;4.60;;;4.20;;
58015;SDS011;43809;52.110;20.964;2022-08-03T01:37:50;4.00;;;3.70;;
58015;SDS011;43809;52.110;20.964;2022-08-03T01:39:52;4.05;;;3.67;;
58015;SDS011;43809;52.110;20.964;2022-08-03T01:42:00;3.90;;;3.60;;
58015;SDS011;43809;52.110;20.964;2022-08-03T01:44:06;3.28;;;3.00;;
58015;SDS011;43809;52.110;20.964;2022-08-03T01:46:07;2.83;;;2.63;;
58015;SDS011;43809;52.110;20.964;2022-08-03T01:48:08;3.40;;;3.10;;
58015;SDS011;43809;52.110;20.964;2022-08-03T01:50:09;2.57;;;2.37;;
58015;SDS011;43809;52.110;20.964;2022-08-03T01:52:10;2.90;;;2.70;;
58015;SDS011;43809;52.110;20.964;2022-08-03T01:54:13;3.38;;;3.13;;
58015;SDS011;43809;52.110;20.964;2022-08-03T01:56:14;2.65;;;2.45;;
58015;SDS011;43809;52.110;20.964;2022-08-03T01:58:16;2.80;;;2.60;;
58015;SDS011;43809;52.110;20.964;2022-08-03T02:00:16;3.22;;;2.78;;
58015;SDS011;43809;52.110;20.964;2022-08-03T02:02:18;3.03;;;2.83;;
58015;SDS011;43809;52.110;20.964;2022-08-03T02:04:18;3.15;;;2.85;;
58015;SDS011;43809;52.110;20.964;2022-08-03T02:06:20;2.92;;;2.72;;
58015;SDS011;43809;52.110;20.964;2022-08-03T02:08:20;3.30;;;3.00;;
58015;SDS011;43809;52.110;20.964;2022-08-03T02:10:22;3.20;;;3.00;;
58015;SDS011;43809;52.110;20.964;2022-08-03T02:12:23;2.72;;;2.53;;
58015;SDS011;43809;52.110;20.964;2022-08-03T02:14:24;3.03;;;2.72;;
58015;SDS011;43809;52.110;20.964;2022-08-03T02:16:25;2.97;;;2.78;;
58015;SDS011;43809;52.110;20.964;2022-08-03T02:18:25;2.97;;;2.67;;
58015;SDS011;43809;52.110;20.964;2022-08-03T02:20:26;2.67;;;2.47;;
58015;SDS011;43809;52.110;20.964;2022-08-03T02:22:27;2.95;;;2.53;;
58015;SDS011;43809;52.110;20.964;2022-08-03T02:24:28;2.50;;;2.30;;
58015;SDS011;43809;52.110;20.964;2022-08-03T02:26:29;2.70;;;2.50;;
58015;SDS011;43809;52.110;20.964;2022-08-03T02:28:31;3.45;;;3.15;;
58015;SDS011;43809;52.110;20.964;2022-08-03T02:30:35;3.05;;;2.85;;
58015;SDS011;43809;52.110;20.964;2022-08-03T02:32:39;3.63;;;3.33;;
58015;SDS011;43809;52.110;20.964;2022-08-03T02:34:41;3.67;;;3.38;;
58015;SDS011;43809;52.110;20.964;2022-08-03T02:36:44;3.97;;;3.67;;
58015;SDS011;43809;52.110;20.964;2022-08-03T02:38:45;4.47;;;3.75;;
58015;SDS011;43809;52.110;20.964;2022-08-03T02:40:48;3.90;;;3.60;;
58015;SDS011;43809;52.110;20.964;2022-08-03T02:42:50;4.70;;;4.30;;
58015;SDS011;43809;52.110;20.964;2022-08-03T02:46:57;3.85;;;3.55;;
58015;SDS011;43809;52.110;20.964;2022-08-03T02:48:59;3.42;;;3.13;;
58015;SDS011;43809;52.110;20.964;2022-08-03T02:51:00;3.75;;;3.45;;
58015;SDS011;43809;52.110;20.964;2022-08-03T02:53:01;4.43;;;4.03;;
58015;SDS011;43809;52.110;20.964;2022-08-03T02:55:02;7.25;;;4.60;;
58015;SDS011;43809;52.110;20.964;2022-08-03T02:57:03;4.22;;;3.83;;
58015;SDS011;43809;52.110;20.964;2022-08-03T02:59:06;3.47;;;3.13;;
58015;SDS011;43809;52.110;20.964;2022-08-03T03:01:07;3.47;;;3.17;;
58015;SDS011;43809;52.110;20.964;2022-08-03T03:03:08;3.40;;;3.10;;
58015;SDS011;43809;52.110;20.964;2022-08-03T03:05:09;3.70;;;3.40;;
58015;SDS011;43809;52.110;20.964;2022-08-03T03:07:11;3.60;;;3.30;;
58015;SDS011;43809;52.110;20.964;2022-08-03T03:09:13;3.15;;;2.88;;
58015;SDS011;43809;52.110;20.964;2022-08-03T03:11:14;2.83;;;2.63;;
58015;SDS011;43809;52.110;20.964;2022-08-03T03:13:14;3.08;;;2.58;;
58015;SDS011;43809;52.110;20.964;2022-08-03T03:15:15;2.90;;;2.70;;
58015;SDS011;43809;52.110;20.964;2022-08-03T03:17:15;4.20;;;3.80;;
58015;SDS011;43809;52.110;20.964;2022-08-03T03:19:15;3.65;;;3.35;;
58015;SDS011;43809;52.110;20.964;2022-08-03T03:21:17;3.22;;;2.97;;
58015;SDS011;43809;52.110;20.964;2022-08-03T03:23:19;3.35;;;3.05;;
58015;SDS011;43809;52.110;20.964;2022-08-03T03:25:20;3.08;;;2.88;;
58015;SDS011;43809;52.110;20.964;2022-08-03T03:27:20;2.73;;;2.53;;
58015;SDS011;43809;52.110;20.964;2022-08-03T03:29:20;2.80;;;2.60;;
58015;SDS011;43809;52.110;20.964;2022-08-03T03:31:21;2.47;;;2.28;;
58015;SDS011;43809;52.110;20.964;2022-08-03T03:33:23;2.67;;;2.47;;
58015;SDS011;43809;52.110;20.964;2022-08-03T03:35:23;2.80;;;2.60;;
58015;SDS011;43809;52.110;20.964;2022-08-03T03:37:25;2.47;;;2.28;;
58015;SDS011;43809;52.110;20.964;2022-08-03T03:39:25;2.88;;;2.67;;
58015;SDS011;43809;52.110;20.964;2022-08-03T03:41:26;2.50;;;2.30;;
58015;SDS011;43809;52.110;20.964;2022-08-03T03:43:27;5.53;;;4.22;;
58015;SDS011;43809;52.110;20.964;2022-08-03T03:45:28;6.25;;;5.65;;
58015;SDS011;43809;52.110;20.964;2022-08-03T03:47:29;7.83;;;7.20;;
58015;SDS011;43809;52.110;20.964;2022-08-03T03:49:30;7.45;;;6.75;;
58015;SDS011;43809;52.110;20.964;2022-08-03T03:51:30;6.65;;;6.05;;
58015;SDS011;43809;52.110;20.964;2022-08-03T03:53:30;5.93;;;5.43;;
58015;SDS011;43809;52.110;20.964;2022-08-03T03:55:31;5.00;;;4.50;;
58015;SDS011;43809;52.110;20.964;2022-08-03T03:57:31;5.00;;;4.60;;
58015;SDS011;43809;52.110;20.964;2022-08-03T03:59:32;9.17;;;7.77;;
58015;SDS011;43809;52.110;20.964;2022-08-03T04:01:36;7.80;;;7.10;;
58015;SDS011;43809;52.110;20.964;2022-08-03T04:03:37;9.70;;;8.63;;
58015;SDS011;43809;52.110;20.964;2022-08-03T04:05:37;13.23;;;11.73;;
58015;SDS011;43809;52.110;20.964;2022-08-03T04:08:00;13.13;;;11.82;;
58015;SDS011;43809;52.110;20.964;2022-08-03T04:10:20;12.45;;;11.25;;
58015;SDS011;43809;52.110;20.964;2022-08-03T04:12:39;12.98;;;11.68;;
58015;SDS011;43809;52.110;20.964;2022-08-03T04:14:40;12.50;;;11.30;;
58015;SDS011;43809;52.110;20.964;2022-08-03T04:16:42;12.77;;;11.15;;
58015;SDS011;43809;52.110;20.964;2022-08-03T04:18:45;9.63;;;8.70;;
58015;SDS011;43809;52.110;20.964;2022-08-03T04:20:47;10.93;;;9.82;;
58015;SDS011;43809;52.110;20.964;2022-08-03T04:22:48;10.60;;;9.57;;
58015;SDS011;43809;52.110;20.964;2022-08-03T04:24:51;14.02;;;11.90;;
58015;SDS011;43809;52.110;20.964;2022-08-03T04:28:52;12.30;;;10.18;;
58015;SDS011;43809;52.110;20.964;2022-08-03T04:30:53;9.25;;;8.32;;
58015;SDS011;43809;52.110;20.964;2022-08-03T04:32:55;8.90;;;8.10;;
58015;SDS011;43809;52.110;20.964;2022-08-03T04:34:56;8.65;;;7.82;;
58015;SDS011;43809;52.110;20.964;2022-08-03T04:36:57;11.55;;;10.38;;
58015;SDS011;43809;52.110;20.964;2022-08-03T04:39:08;12.37;;;11.13;;
58015;SDS011;43809;52.110;20.964;2022-08-03T04:41:09;12.60;;;11.30;;
58015;SDS011;43809;52.110;20.964;2022-08-03T04:43:10;11.27;;;9.15;;
58015;SDS011;43809;52.110;20.964;2022-08-03T04:45:11;9.00;;;7.63;;
58015;SDS011;43809;52.110;20.964;2022-08-03T04:47:12;8.27;;;7.10;;
58015;SDS011;43809;52.110;20.964;2022-08-03T04:49:12;7.40;;;6.72;;
58015;SDS011;43809;52.110;20.964;2022-08-03T04:51:12;12.10;;;10.90;;
58015;SDS011;43809;52.110;20.964;2022-08-03T04:53:13;10.27;;;9.38;;
58015;SDS011;43809;52.110;20.964;2022-08-03T04:55:31;8.97;;;8.20;;
58015;SDS011;43809;52.110;20.964;2022-08-03T04:57:31;10.75;;;9.75;;
58015;SDS011;43809;52.110;20.964;2022-08-03T04:59:32;10.43;;;9.40;;
58015;SDS011;43809;52.110;20.964;2022-08-03T05:01:32;12.37;;;10.77;;
58015;SDS011;43809;52.110;20.964;2022-08-03T05:03:32;11.95;;;10.85;;
58015;SDS011;43809;52.110;20.964;2022-08-03T05:05:32;13.93;;;12.10;;
58015;SDS011;43809;52.110;20.964;2022-08-03T05:07:33;11.93;;;10.73;;
58015;SDS011;43809;52.110;20.964;2022-08-03T05:09:33;10.77;;;9.77;;
58015;SDS011;43809;52.110;20.964;2022-08-03T05:11:36;8.35;;;7.68;;
58015;SDS011;43809;52.110;20.964;2022-08-03T05:13:38;10.90;;;9.93;;
58015;SDS011;43809;52.110;20.964;2022-08-03T05:15:38;8.93;;;8.05;;
58015;SDS011;43809;52.110;20.964;2022-08-03T05:17:38;6.28;;;5.78;;
58015;SDS011;43809;52.110;20.964;2022-08-03T05:19:39;5.80;;;5.30;;
58015;SDS011;43809;52.110;20.964;2022-08-03T05:21:39;6.73;;;6.13;;
58015;SDS011;43809;52.110;20.964;2022-08-03T05:23:39;7.10;;;6.33;;
58015;SDS011;43809;52.110;20.964;2022-08-03T05:25:40;7.72;;;7.03;;
58015;SDS011;43809;52.110;20.964;2022-08-03T05:27:40;8.77;;;7.50;;
58015;SDS011;43809;52.110;20.964;2022-08-03T05:29:40;8.57;;;7.78;;
58015;SDS011;43809;52.110;20.964;2022-08-03T05:31:41;7.30;;;6.70;;
58015;SDS011;43809;52.110;20.964;2022-08-03T05:33:41;7.00;;;6.40;;
58015;SDS011;43809;52.110;20.964;2022-08-03T05:35:47;6.97;;;6.38;;
58015;SDS011;43809;52.110;20.964;2022-08-03T05:37:51;6.70;;;6.18;;
58015;SDS011;43809;52.110;20.964;2022-08-03T05:39:51;6.03;;;5.57;;
58015;SDS011;43809;52.110;20.964;2022-08-03T05:41:51;5.90;;;5.50;;
58015;SDS011;43809;52.110;20.964;2022-08-03T05:43:54;6.70;;;6.10;;
58015;SDS011;43809;52.110;20.964;2022-08-03T05:45:55;7.75;;;5.78;;
58015;SDS011;43809;52.110;20.964;2022-08-03T05:47:55;7.43;;;6.82;;
58015;SDS011;43809;52.110;20.964;2022-08-03T05:49:55;6.37;;;5.87;;
58015;SDS011;43809;52.110;20.964;2022-08-03T05:51:57;7.05;;;6.45;;
58015;SDS011;43809;52.110;20.964;2022-08-03T05:53:58;7.45;;;6.85;;
58015;SDS011;43809;52.110;20.964;2022-08-03T05:55:58;6.23;;;5.73;;
58015;SDS011;43809;52.110;20.964;2022-08-03T05:57:58;8.85;;;8.05;;
58015;SDS011;43809;52.110;20.964;2022-08-03T05:59:58;6.90;;;6.30;;
58015;SDS011;43809;52.110;20.964;2022-08-03T06:01:59;8.50;;;7.80;;
58015;SDS011;43809;52.110;20.964;2022-08-03T06:03:59;7.28;;;6.57;;
58015;SDS011;43809;52.110;20.964;2022-08-03T06:05:59;11.73;;;10.53;;
58015;SDS011;43809;52.110;20.964;2022-08-03T06:08:00;8.70;;;7.85;;
58015;SDS011;43809;52.110;20.964;2022-08-03T06:10:00;8.52;;;7.75;;
58015;SDS011;43809;52.110;20.964;2022-08-03T06:12:03;8.73;;;7.93;;
58015;SDS011;43809;52.110;20.964;2022-08-03T06:14:04;6.60;;;6.00;;
58015;SDS011;43809;52.110;20.964;2022-08-03T06:16:04;7.18;;;6.47;;
58015;SDS011;43809;52.110;20.964;2022-08-03T06:18:04;8.27;;;7.47;;
58015;SDS011;43809;52.110;20.964;2022-08-03T06:20:06;8.30;;;6.80;;
58015;SDS011;43809;52.110;20.964;2022-08-03T06:22:07;7.72;;;7.05;;
58015;SDS011;43809;52.110;20.964;2022-08-03T06:24:07;8.10;;;7.40;;
58015;SDS011;43809;52.110;20.964;2022-08-03T06:26:07;8.50;;;7.00;;
58015;SDS011;43809;52.110;20.964;2022-08-03T06:28:08;6.70;;;6.10;;
58015;SDS011;43809;52.110;20.964;2022-08-03T06:30:08;9.27;;;8.27;;
58015;SDS011;43809;52.110;20.964;2022-08-03T06:32:10;7.97;;;7.22;;
58015;SDS011;43809;52.110;20.964;2022-08-03T06:34:11;9.60;;;8.70;;
58015;SDS011;43809;52.110;20.964;2022-08-03T06:36:12;9.10;;;8.20;;
58015;SDS011;43809;52.110;20.964;2022-08-03T06:38:12;9.88;;;8.98;;
58015;SDS011;43809;52.110;20.964;2022-08-03T06:40:13;9.20;;;8.30;;
58015;SDS011;43809;52.110;20.964;2022-08-03T06:42:14;7.70;;;7.10;;
58015;SDS011;43809;52.110;20.964;2022-08-03T06:44:14;9.02;;;8.13;;
58015;SDS011;43809;52.110;20.964;2022-08-03T06:46:14;8.80;;;8.00;;
58015;SDS011;43809;52.110;20.964;2022-08-03T06:48:15;10.02;;;9.05;;
58015;SDS011;43809;52.110;20.964;2022-08-03T06:50:15;8.77;;;8.03;;
58015;SDS011;43809;52.110;20.964;2022-08-03T06:54:17;8.20;;;7.40;;
58015;SDS011;43809;52.110;20.964;2022-08-03T06:56:17;10.33;;;7.97;;
58015;SDS011;43809;52.110;20.964;2022-08-03T06:58:19;7.47;;;6.88;;
58015;SDS011;43809;52.110;20.964;2022-08-03T07:00:19;5.73;;;5.23;;
58015;SDS011;43809;52.110;20.964;2022-08-03T07:02:20;6.17;;;5.67;;
58015;SDS011;43809;52.110;20.964;2022-08-03T07:04:20;5.40;;;4.90;;
58015;SDS011;43809;52.110;20.964;2022-08-03T07:06:20;6.77;;;6.17;;
58015;SDS011;43809;52.110;20.964;2022-08-03T07:08:20;6.93;;;6.17;;
58015;SDS011;43809;52.110;20.964;2022-08-03T07:10:20;5.67;;;5.17;;
58015;SDS011;43809;52.110;20.964;2022-08-03T07:12:21;5.50;;;5.00;;
58015;SDS011;43809;52.110;20.964;2022-08-03T07:14:21;5.93;;;5.47;;
58015;SDS011;43809;52.110;20.964;2022-08-03T07:16:21;5.60;;;5.10;;
58015;SDS011;43809;52.110;20.964;2022-08-03T07:18:22;5.13;;;4.70;;
58015;SDS011;43809;52.110;20.964;2022-08-03T07:20:22;5.40;;;4.87;;
58015;SDS011;43809;52.110;20.964;2022-08-03T07:22:22;7.23;;;6.53;;
58015;SDS011;43809;52.110;20.964;2022-08-03T07:24:23;5.87;;;5.37;;
58015;SDS011;43809;52.110;20.964;2022-08-03T07:26:23;5.67;;;5.17;;
58015;SDS011;43809;52.110;20.964;2022-08-03T07:28:23;4.90;;;4.53;;
58015;SDS011;43809;52.110;20.964;2022-08-03T07:30:23;5.07;;;4.67;;
58015;SDS011;43809;52.110;20.964;2022-08-03T07:32:24;5.87;;;5.47;;
58015;SDS011;43809;52.110;20.964;2022-08-03T07:34:24;5.97;;;5.47;;
58015;SDS011;43809;52.110;20.964;2022-08-03T07:36:24;6.27;;;5.47;;
58015;SDS011;43809;52.110;20.964;2022-08-03T07:38:25;5.10;;;4.55;;
58015;SDS011;43809;52.110;20.964;2022-08-03T07:40:26;5.50;;;5.00;;
58015;SDS011;43809;52.110;20.964;2022-08-03T07:42:26;5.47;;;4.90;;
58015;SDS011;43809;52.110;20.964;2022-08-03T07:44:26;5.33;;;4.93;;
58015;SDS011;43809;52.110;20.964;2022-08-03T07:46:27;6.47;;;5.87;;
58015;SDS011;43809;52.110;20.964;2022-08-03T07:48:27;5.37;;;4.87;;
58015;SDS011;43809;52.110;20.964;2022-08-03T07:50:27;6.35;;;5.75;;
58015;SDS011;43809;52.110;20.964;2022-08-03T07:52:28;6.30;;;5.80;;
58015;SDS011;43809;52.110;20.964;2022-08-03T07:54:46;6.15;;;5.40;;
58015;SDS011;43809;52.110;20.964;2022-08-03T07:56:46;5.10;;;4.60;;
58015;SDS011;43809;52.110;20.964;2022-08-03T07:58:47;4.33;;;3.93;;
58015;SDS011;43809;52.110;20.964;2022-08-03T08:00:48;5.72;;;5.22;;
58015;SDS011;43809;52.110;20.964;2022-08-03T08:02:49;5.57;;;5.07;;
58015;SDS011;43809;52.110;20.964;2022-08-03T08:04:50;5.07;;;4.63;;
58015;SDS011;43809;52.110;20.964;2022-08-03T08:06:50;4.20;;;3.87;;
58015;SDS011;43809;52.110;20.964;2022-08-03T08:08:50;5.73;;;4.60;;
58015;SDS011;43809;52.110;20.964;2022-08-03T08:10:50;4.40;;;4.10;;
58015;SDS011;43809;52.110;20.964;2022-08-03T08:12:50;3.67;;;3.37;;
58015;SDS011;43809;52.110;20.964;2022-08-03T08:14:51;3.83;;;3.50;;
58015;SDS011;43809;52.110;20.964;2022-08-03T08:16:51;3.37;;;2.93;;
58015;SDS011;43809;52.110;20.964;2022-08-03T08:18:51;3.77;;;3.47;;
58015;SDS011;43809;52.110;20.964;2022-08-03T08:20:51;3.63;;;3.30;;
58015;SDS011;43809;52.110;20.964;2022-08-03T08:22:51;3.23;;;3.00;;
58015;SDS011;43809;52.110;20.964;2022-08-03T08:24:52;3.10;;;2.90;;
58015;SDS011;43809;52.110;20.964;2022-08-03T08:26:52;3.27;;;2.60;;
58015;SDS011;43809;52.110;20.964;2022-08-03T08:28:52;2.53;;;2.30;;
58015;SDS011;43809;52.110;20.964;2022-08-03T08:30:52;2.57;;;2.37;;
58015;SDS011;43809;52.110;20.964;2022-08-03T08:32:52;2.50;;;2.30;;
58015;SDS011;43809;52.110;20.964;2022-08-03T08:34:52;2.30;;;2.20;;
58015;SDS011;43809;52.110;20.964;2022-08-03T08:36:53;2.73;;;2.53;;
58015;SDS011;43809;52.110;20.964;2022-08-03T08:38:53;2.53;;;2.33;;
58015;SDS011;43809;52.110;20.964;2022-08-03T08:40:56;3.10;;;2.43;;
58015;SDS011;43809;52.110;20.964;2022-08-03T08:42:56;2.72;;;2.40;;
58015;SDS011;43809;52.110;20.964;2022-08-03T08:44:56;2.40;;;2.20;;
58015;SDS011;43809;52.110;20.964;2022-08-03T08:46:56;2.00;;;1.90;;
58015;SDS011;43809;52.110;20.964;2022-08-03T08:49:00;2.40;;;2.20;;
58015;SDS011;43809;52.110;20.964;2022-08-03T08:51:00;2.50;;;2.30;;
58015;SDS011;43809;52.110;20.964;2022-08-03T08:53:01;2.17;;;2.08;;
58015;SDS011;43809;52.110;20.964;2022-08-03T08:55:06;2.45;;;2.25;;
58015;SDS011;43809;52.110;20.964;2022-08-03T08:57:06;2.22;;;2.08;;
58015;SDS011;43809;52.110;20.964;2022-08-03T08:59:08;2.40;;;2.20;;
58015;SDS011;43809;52.110;20.964;2022-08-03T09:01:08;2.45;;;2.25;;
58015;SDS011;43809;52.110;20.964;2022-08-03T09:03:09;2.55;;;2.35;;
58015;SDS011;43809;52.110;20.964;2022-08-03T09:05:10;2.50;;;2.30;;
58015;SDS011;43809;52.110;20.964;2022-08-03T09:07:11;2.83;;;2.53;;
58015;SDS011;43809;52.110;20.964;2022-08-03T09:09:12;2.60;;;2.40;;
58015;SDS011;43809;52.110;20.964;2022-08-03T09:11:12;2.88;;;2.30;;
58015;SDS011;43809;52.110;20.964;2022-08-03T09:13:12;2.67;;;2.47;;
58015;SDS011;43809;52.110;20.964;2022-08-03T09:15:15;3.72;;;3.38;;
58015;SDS011;43809;52.110;20.964;2022-08-03T09:17:15;3.60;;;3.30;;
58015;SDS011;43809;52.110;20.964;2022-08-03T09:19:15;3.90;;;3.60;;
58015;SDS011;43809;52.110;20.964;2022-08-03T09:21:20;3.50;;;3.20;;
58015;SDS011;43809;52.110;20.964;2022-08-03T09:23:20;3.40;;;3.10;;
58015;SDS011;43809;52.110;20.964;2022-08-03T09:25:27;3.70;;;3.40;;
58015;SDS011;43809;52.110;20.964;2022-08-03T09:27:28;3.50;;;3.20;;
58015;SDS011;43809;52.110;20.964;2022-08-03T09:29:30;3.73;;;3.30;;
58015;SDS011;43809;52.110;20.964;2022-08-03T09:31:38;4.63;;;3.38;;
58015;SDS011;43809;52.110;20.964;2022-08-03T09:33:46;3.83;;;2.85;;
58015;SDS011;43809;52.110;20.964;2022-08-03T09:35:47;3.58;;;3.20;;
58015;SDS011;43809;52.110;20.964;2022-08-03T09:37:50;3.63;;;3.25;;
58015;SDS011;43809;52.110;20.964;2022-08-03T09:40:07;3.25;;;2.95;;
58015;SDS011;43809;52.110;20.964;2022-08-03T09:44:09;3.73;;;3.43;;
58015;SDS011;43809;52.110;20.964;2022-08-03T09:46:09;3.60;;;3.30;;
58015;SDS011;43809;52.110;20.964;2022-08-03T09:48:18;4.40;;;3.97;;
58015;SDS011;43809;52.110;20.964;2022-08-03T09:50:18;3.88;;;3.58;;
58015;SDS011;43809;52.110;20.964;2022-08-03T09:52:19;3.90;;;3.60;;
58015;SDS011;43809;52.110;20.964;2022-08-03T09:54:27;3.70;;;3.40;;
58015;SDS011;43809;52.110;20.964;2022-08-03T09:56:46;4.45;;;4.05;;
58015;SDS011;43809;52.110;20.964;2022-08-03T09:58:46;4.28;;;3.63;;
58015;SDS011;43809;52.110;20.964;2022-08-03T10:01:03;4.30;;;3.90;;
58015;SDS011;43809;52.110;20.964;2022-08-03T10:03:04;4.13;;;3.72;;
58015;SDS011;43809;52.110;20.964;2022-08-03T10:05:05;4.13;;;3.73;;
58015;SDS011;43809;52.110;20.964;2022-08-03T10:07:09;3.30;;;3.10;;
58015;SDS011;43809;52.110;20.964;2022-08-03T10:09:13;3.95;;;3.65;;
58015;SDS011;43809;52.110;20.964;2022-08-03T10:11:27;4.45;;;3.45;;
58015;SDS011;43809;52.110;20.964;2022-08-03T10:13:29;3.65;;;3.30;;
58015;SDS011;43809;52.110;20.964;2022-08-03T10:17:29;4.22;;;3.83;;
58015;SDS011;43809;52.110;20.964;2022-08-03T10:19:30;7.07;;;4.27;;
58015;SDS011;43809;52.110;20.964;2022-08-03T10:21:34;4.73;;;4.33;;
58015;SDS011;43809;52.110;20.964;2022-08-03T10:23:34;4.30;;;4.00;;
58015;SDS011;43809;52.110;20.964;2022-08-03T10:25:34;4.27;;;3.30;;
58015;SDS011;43809;52.110;20.964;2022-08-03T10:27:37;4.05;;;3.75;;
58015;SDS011;43809;52.110;20.964;2022-08-03T10:29:40;5.07;;;4.25;;
58015;SDS011;43809;52.110;20.964;2022-08-03T10:31:43;4.50;;;3.65;;
58015;SDS011;43809;52.110;20.964;2022-08-03T10:33:45;5.30;;;3.83;;
58015;SDS011;43809;52.110;20.964;2022-08-03T10:35:47;4.05;;;3.75;;
58015;SDS011;43809;52.110;20.964;2022-08-03T10:38:02;3.50;;;3.20;;
58015;SDS011;43809;52.110;20.964;2022-08-03T10:40:02;3.42;;;3.13;;
58015;SDS011;43809;52.110;20.964;2022-08-03T10:42:03;3.37;;;2.93;;
58015;SDS011;43809;52.110;20.964;2022-08-03T10:44:05;3.83;;;3.53;;
58015;SDS011;43809;52.110;20.964;2022-08-03T10:46:07;4.07;;;3.78;;
58015;SDS011;43809;52.110;20.964;2022-08-03T10:48:07;3.90;;;3.60;;
58015;SDS011;43809;52.110;20.964;2022-08-03T10:50:08;3.30;;;3.00;;
58015;SDS011;43809;52.110;20.964;2022-08-03T10:52:08;4.00;;;3.70;;
58015;SDS011;43809;52.110;20.964;2022-08-03T10:58:50;4.90;;;3.85;;
58015;SDS011;43809;52.110;20.964;2022-08-03T11:00:51;5.13;;;3.90;;
58015;SDS011;43809;52.110;20.964;2022-08-03T11:03:04;3.67;;;3.37;;
58015;SDS011;43809;52.110;20.964;2022-08-03T11:05:24;5.00;;;4.60;;
58015;SDS011;43809;52.110;20.964;2022-08-03T11:07:25;5.47;;;3.95;;
58015;SDS011;43809;52.110;20.964;2022-08-03T11:09:27;4.88;;;3.53;;
58015;SDS011;43809;52.110;20.964;2022-08-03T11:11:40;3.40;;;3.20;;
58015;SDS011;43809;52.110;20.964;2022-08-03T11:13:43;3.95;;;3.55;;
58015;SDS011;43809;52.110;20.964;2022-08-03T11:15:56;4.15;;;3.25;;
58015;SDS011;43809;52.110;20.964;2022-08-03T11:18:06;3.30;;;3.00;;
58015;SDS011;43809;52.110;20.964;2022-08-03T11:20:07;3.30;;;3.10;;
58015;SDS011;43809;52.110;20.964;2022-08-03T11:22:08;4.27;;;3.97;;
58015;SDS011;43809;52.110;20.964;2022-08-03T11:24:08;5.23;;;4.03;;
58015;SDS011;43809;52.110;20.964;2022-08-03T11:26:11;4.53;;;4.13;;
58015;SDS011;43809;52.110;20.964;2022-08-03T11:28:24;4.15;;;3.85;;
58015;SDS011;43809;52.110;20.964;2022-08-03T11:30:25;3.40;;;3.20;;
58015;SDS011;43809;52.110;20.964;2022-08-03T11:35:04;4.95;;;3.33;;
58015;SDS011;43809;52.110;20.964;2022-08-03T11:39:16;4.35;;;4.00;;
58015;SDS011;43809;52.110;20.964;2022-08-03T11:41:31;3.97;;;3.67;;
58015;SDS011;43809;52.110;20.964;2022-08-03T11:45:34;4.20;;;3.75;;
58015;SDS011;43809;52.110;20.964;2022-08-03T11:47:35;4.70;;;4.30;;
58015;SDS011;43809;52.110;20.964;2022-08-03T11:49:36;4.03;;;3.70;;
58015;SDS011;43809;52.110;20.964;2022-08-03T11:51:37;4.45;;;4.07;;
58015;SDS011;43809;52.110;20.964;2022-08-03T11:53:39;5.03;;;4.53;;
58015;SDS011;43809;52.110;20.964;2022-08-03T11:55:39;4.17;;;3.77;;
58015;SDS011;43809;52.110;20.964;2022-08-03T11:57:42;7.20;;;4.07;;
58015;SDS011;43809;52.110;20.964;2022-08-03T11:59:42;3.87;;;3.47;;
58015;SDS011;43809;52.110;20.964;2022-08-03T12:01:42;3.70;;;3.40;;
58015;SDS011;43809;52.110;20.964;2022-08-03T12:03:43;4.03;;;3.73;;
58015;SDS011;43809;52.110;20.964;2022-08-03T12:07:44;5.00;;;4.10;;
58015;SDS011;43809;52.110;20.964;2022-08-03T12:11:48;4.80;;;4.40;;
58015;SDS011;43809;52.110;20.964;2022-08-03T12:13:49;3.63;;;3.33;;
58015;SDS011;43809;52.110;20.964;2022-08-03T12:15:53;4.40;;;4.00;;
58015;SDS011;43809;52.110;20.964;2022-08-03T12:17:53;3.77;;;3.47;;
58015;SDS011;43809;52.110;20.964;2022-08-03T12:19:54;3.55;;;3.25;;
58015;SDS011;43809;52.110;20.964;2022-08-03T12:21:54;3.80;;;3.40;;
58015;SDS011;43809;52.110;20.964;2022-08-03T12:23:55;4.00;;;3.70;;
58015;SDS011;43809;52.110;20.964;2022-08-03T12:26:00;3.90;;;3.60;;
58015;SDS011;43809;52.110;20.964;2022-08-03T12:28:08;5.00;;;4.60;;
58015;SDS011;43809;52.110;20.964;2022-08-03T12:30:09;4.30;;;4.00;;
58015;SDS011;43809;52.110;20.964;2022-08-03T12:32:13;3.60;;;3.30;;
58015;SDS011;43809;52.110;20.964;2022-08-03T12:34:13;2.90;;;2.67;;
58015;SDS011;43809;52.110;20.964;2022-08-03T12:36:14;4.27;;;3.83;;
58015;SDS011;43809;52.110;20.964;2022-08-03T12:38:18;3.50;;;3.20;;
58015;SDS011;43809;52.110;20.964;2022-08-03T12:40:25;3.38;;;3.08;;
58015;SDS011;43809;52.110;20.964;2022-08-03T12:42:34;11.02;;;4.97;;